createdAt,value
2022-08-03T04:05:18.315Z,100624.78
2022-08-03T04:08:39.937Z,100624.78
2022-08-03T04:11:51.346Z,100635.38
2022-08-03T04:14:56.756Z,100634.03
2022-08-03T04:17:59.670Z,100644.22
2022-08-03T04:21:05.839Z,100649.09
2022-08-03T04:24:09.413Z,100645.00
2022-08-03T04:27:14.085Z,100649.41
2022-08-03T04:30:16.370Z,100656.66
2022-08-03T04:33:19.986Z,100654.06
2022-08-03T04:36:25.908Z,100655.50
2022-08-03T04:39:31.381Z,100658.78
2022-08-03T04:42:34.410Z,100658.25
2022-08-03T04:45:37.887Z,100660.75
2022-08-03T04:48:44.371Z,100663.63
2022-08-03T04:51:49.121Z,100662.94
2022-08-03T04:54:51.322Z,100661.44
2022-08-03T04:57:53.674Z,100670.78
2022-08-03T05:00:55.749Z,100671.22
2022-08-03T05:03:58.128Z,100673.47
2022-08-03T05:07:00.205Z,100678.81
2022-08-03T05:10:15.797Z,100687.19
2022-08-03T05:13:18.286Z,100688.25
2022-08-03T05:16:20.642Z,100676.88
2022-08-03T05:19:22.725Z,100692.62
2022-08-03T05:22:25.066Z,100689.91
2022-08-03T05:28:31.724Z,100691.94
2022-08-03T05:31:33.858Z,100694.69
2022-08-03T05:34:36.188Z,100699.53
2022-08-03T05:37:38.284Z,100701.87
2022-08-03T05:41:20.990Z,100696.38
2022-08-03T05:44:20.605Z,100700.09
2022-08-03T05:47:23.020Z,100709.00
2022-08-03T05:50:25.083Z,100701.75
2022-08-03T05:53:27.458Z,100703.09
2022-08-03T05:56:29.551Z,100705.59
2022-08-03T05:59:38.812Z,100712.84
2022-08-03T06:02:41.231Z,100715.34
2022-08-03T06:05:55.490Z,100716.97
2022-08-03T06:09:02.575Z,100719.81
2022-08-03T06:12:05.318Z,100721.25
2022-08-03T06:15:08.070Z,100725.41
2022-08-03T06:18:13.951Z,100736.34
2022-08-03T06:21:16.395Z,100721.97
2022-08-03T06:24:18.808Z,100723.69
2022-08-03T06:27:29.358Z,100727.25
2022-08-03T06:30:40.470Z,100725.72
2022-08-03T06:34:31.051Z,100728.87
2022-08-03T06:37:05.026Z,100727.34
2022-08-03T06:40:07.594Z,100734.88
2022-08-03T06:43:12.535Z,100730.62
2022-08-03T06:46:14.927Z,100738.13
2022-08-03T06:49:17.317Z,100735.28
2022-08-03T06:52:37.566Z,100736.94
2022-08-03T06:55:42.410Z,100730.78
2022-08-03T06:58:44.673Z,100730.94
2022-08-03T07:01:47.131Z,100735.22
2022-08-03T07:04:49.302Z,100743.38
2022-08-03T07:07:55.647Z,100740.75
2022-08-03T07:10:57.798Z,100733.31
2022-08-03T07:14:00.136Z,100738.06
2022-08-03T07:17:04.657Z,100736.22
2022-08-03T07:20:15.187Z,100745.28
2022-08-03T07:23:19.263Z,100734.38
2022-08-03T07:26:21.908Z,100738.37
2022-08-03T07:29:23.977Z,100739.22
2022-08-03T07:32:26.818Z,100732.97
2022-08-03T07:35:28.918Z,100740.91
2022-08-03T07:38:31.298Z,100734.97
2022-08-03T07:41:33.545Z,100731.87
2022-08-03T07:44:36.557Z,100735.47
2022-08-03T07:47:38.633Z,100734.69
2022-08-03T07:50:40.963Z,100731.97
2022-08-03T07:53:47.295Z,100726.09
2022-08-03T07:56:50.251Z,100726.56
2022-08-03T08:00:01.835Z,100725.03
2022-08-03T08:03:14.062Z,100725.50
2022-08-03T08:06:16.529Z,100721.16
2022-08-03T08:09:18.621Z,100730.91
2022-08-03T08:12:21.137Z,100727.44
2022-08-03T08:15:23.510Z,100716.44
2022-08-03T08:18:25.836Z,100722.69
2022-08-03T08:22:01.802Z,100730.19
2022-08-03T08:24:50.769Z,100720.75
2022-08-03T08:28:31.261Z,100722.28
2022-08-03T08:31:17.044Z,100727.78
2022-08-03T08:34:19.134Z,100724.72
2022-08-03T08:37:21.534Z,100716.91
2022-08-03T08:40:23.670Z,100725.22
2022-08-03T08:43:26.018Z,100723.56
2022-08-03T08:46:32.019Z,100723.94
2022-08-03T08:49:39.730Z,100722.41
2022-08-03T08:52:43.422Z,100717.72
2022-08-03T08:55:59.548Z,100716.56
2022-08-03T08:59:02.833Z,100711.13
2022-08-03T09:02:06.082Z,100710.38
2022-08-03T09:05:16.987Z,100713.91
2022-08-03T09:08:19.603Z,100704.91
2022-08-03T09:11:55.707Z,100712.78
2022-08-03T09:15:07.447Z,100707.25
2022-08-03T09:18:09.570Z,100702.13
2022-08-03T09:21:32.037Z,100700.16
2022-08-03T09:24:41.632Z,100708.44
2022-08-03T09:27:46.419Z,100704.50
2022-08-03T09:31:00.701Z,100705.72
2022-08-03T09:34:08.298Z,100697.09
2022-08-03T09:37:16.134Z,100693.56
2022-08-03T09:40:34.603Z,100692.38
2022-08-03T09:43:46.697Z,100693.56
2022-08-03T09:46:54.930Z,100684.16
2022-08-03T09:50:01.881Z,100688.13
2022-08-03T09:53:04.283Z,100679.47
2022-08-03T09:56:35.898Z,100690.50
2022-08-03T09:59:31.950Z,100695.63
2022-08-03T10:02:34.000Z,100685.78
2022-08-03T10:05:36.322Z,100675.53
2022-08-03T10:08:38.413Z,100677.09
2022-08-03T10:11:42.644Z,100670.41
2022-08-03T10:14:46.604Z,100660.19
2022-08-03T10:17:49.261Z,100665.28
2022-08-03T10:20:53.789Z,100666.12
2022-08-03T10:23:56.782Z,100661.38
2022-08-03T10:27:07.437Z,100653.91
2022-08-03T10:30:11.750Z,100649.56
2022-08-03T10:33:50.844Z,100652.34
2022-08-03T10:36:55.706Z,100645.25
2022-08-03T10:39:59.997Z,100647.59
2022-08-03T10:43:25.975Z,100647.59
2022-08-03T10:46:28.986Z,100645.66
2022-08-03T10:49:34.313Z,100650.75
2022-08-03T10:52:54.037Z,100638.94
2022-08-03T10:56:14.886Z,100629.50
2022-08-03T10:59:47.201Z,100621.97
2022-08-03T11:03:09.370Z,100621.19
2022-08-03T11:06:18.945Z,100621.59
2022-08-03T11:09:21.306Z,100620.41
2022-08-03T11:12:32.731Z,100609.72
2022-08-03T11:15:35.982Z,100612.47
2022-08-03T11:18:56.217Z,100602.22
2022-08-03T11:21:59.072Z,100601.06
2022-08-03T11:25:01.734Z,100601.06
2022-08-03T11:28:28.211Z,100605.34
2022-08-03T11:31:49.390Z,100597.47
2022-08-03T11:35:09.050Z,100591.97
2022-08-03T11:38:12.982Z,100592.69
2022-08-03T11:41:33.338Z,100589.94
2022-08-03T11:44:47.492Z,100585.56
2022-08-03T11:47:53.952Z,100583.59
2022-08-03T11:50:56.819Z,100578.84
2022-08-03T11:54:04.489Z,100581.94
2022-08-03T11:57:06.742Z,100582.34
2022-08-03T12:00:30.464Z,100578.41
2022-08-03T12:03:34.745Z,100576.41
2022-08-03T12:06:55.165Z,100569.31
2022-08-03T12:10:08.526Z,100569.75
2022-08-03T12:14:26.937Z,100570.56
2022-08-03T12:16:32.969Z,100561.84
2022-08-03T12:19:44.670Z,100567.72
2022-08-03T12:22:47.010Z,100561.78
2022-08-03T12:25:49.580Z,100557.81
2022-08-03T12:28:52.383Z,100553.03
2022-08-03T12:31:55.930Z,100552.66
2022-08-03T12:35:01.305Z,100547.94
2022-08-03T12:38:04.075Z,100546.28
2022-08-03T12:41:11.774Z,100536.81
2022-08-03T12:44:13.904Z,100543.88
2022-08-03T12:47:16.469Z,100537.16
2022-08-03T12:50:31.322Z,100534.06
2022-08-03T12:53:35.517Z,100529.31
2022-08-03T12:57:00.162Z,100523.88
2022-08-03T13:00:17.454Z,100527.84
2022-08-03T13:03:42.702Z,100523.88
2022-08-03T13:07:03.005Z,100528.63
2022-08-03T13:10:08.135Z,100527.88
2022-08-03T13:13:10.779Z,100524.00
2022-08-03T13:16:18.769Z,100523.62
2022-08-03T13:19:21.591Z,100522.78
2022-08-03T13:22:25.795Z,100520.00
2022-08-03T13:25:28.157Z,100512.06
2022-08-03T13:28:30.247Z,100510.47
2022-08-03T13:31:32.585Z,100502.59
2022-08-03T13:34:34.834Z,100498.56
2022-08-03T13:37:38.026Z,100498.13
2022-08-03T13:40:41.825Z,100501.63
2022-08-03T13:43:44.295Z,100505.22
2022-08-03T13:46:49.184Z,100500.53
2022-08-03T13:49:54.177Z,100489.84
2022-08-03T13:53:02.690Z,100487.44
2022-08-03T13:56:05.058Z,100479.53
2022-08-03T13:59:07.147Z,100473.91
2022-08-03T14:02:09.548Z,100473.19
2022-08-03T14:05:11.937Z,100474.00
2022-08-03T14:08:14.039Z,100469.59
2022-08-03T14:11:17.526Z,100466.66
2022-08-03T14:14:19.638Z,100471.06
2022-08-03T14:17:23.263Z,100467.50
2022-08-03T14:20:36.800Z,100451.59
